Time;durP1;ratioP1;P1;durP2;ratioP2;P2;SDS_P1;SDS_P2;PMS_P1;PMS_P2;Temp;Humidity;BMP_temperature;BMP_pressure;BME280_temperature;BME280_humidity;BME280_pressure;Samples;Min_cycle;Max_cycle;Signal;HPM_P1;HPM_P2
2022/11/30 00:00:54;;;;;;;38.72;22.15;;;;;;;;;;5112555;28;20035;-66
2022/11/30 00:03:20;;;;;;;38.08;22.05;;;;;;;;;;5108480;28;20039;-66
2022/11/30 00:05:46;;;;;;;41.55;21.65;;;;;;;;;;5092437;28;20044;-66
2022/11/30 00:08:12;;;;;;;42.92;23.35;;;;;;;;;;5094337;28;20390;-66
2022/11/30 00:10:39;;;;;;;38.55;22.02;;;;;;;;;;5112878;28;20027;-66
2022/11/30 00:13:05;;;;;;;41.58;22.67;;;;;;;;;;5113055;28;20340;-66
2022/11/30 00:15:31;;;;;;;40.97;22.60;;;;;;;;;;5111134;28;20051;-66
2022/11/30 00:17:58;;;;;;;38.85;21.63;;;;;;;;;;5112474;28;20444;-66
2022/11/30 00:20:24;;;;;;;38.55;22.52;;;;;;;;;;5112597;28;20114;-66
2022/11/30 00:22:50;;;;;;;39.85;21.35;;;;;;;;;;5112557;28;20051;-66
2022/11/30 00:25:16;;;;;;;37.90;22.55;;;;;;;;;;5112301;28;20063;-66
2022/11/30 00:27:42;;;;;;;39.85;21.80;;;;;;;;;;5112733;28;20474;-66
2022/11/30 00:30:08;;;;;;;43.35;23.17;;;;;;;;;;5112448;28;20046;-66
2022/11/30 00:32:34;;;;;;;40.13;21.95;;;;;;;;;;5111589;28;20036;-66
2022/11/30 00:35:00;;;;;;;40.60;22.30;;;;;;;;;;5112544;28;20614;-66
2022/11/30 00:37:26;;;;;;;38.00;20.70;;;;;;;;;;5112576;28;20031;-66
2022/11/30 00:39:52;;;;;;;37.60;20.17;;;;;;;;;;5112139;28;20432;-66
2022/11/30 00:42:18;;;;;;;40.00;21.55;;;;;;;;;;5112344;28;20043;-66
2022/11/30 00:44:44;;;;;;;38.42;21.92;;;;;;;;;;5112048;28;20086;-66
2022/11/30 00:47:10;;;;;;;37.65;21.48;;;;;;;;;;5111560;28;20048;-66
2022/11/30 00:49:37;;;;;;;39.63;21.70;;;;;;;;;;5112230;28;20042;-66
2022/11/30 00:52:03;;;;;;;39.25;21.08;;;;;;;;;;5112167;28;20093;-66
2022/11/30 00:54:29;;;;;;;40.58;22.02;;;;;;;;;;5111948;28;20466;-66
2022/11/30 00:56:55;;;;;;;41.50;22.60;;;;;;;;;;5112191;28;20036;-66
2022/11/30 00:59:21;;;;;;;43.63;23.23;;;;;;;;;;5112183;28;20440;-66
2022/11/30 01:01:47;;;;;;;37.63;20.90;;;;;;;;;;5111310;28;20046;-66
2022/11/30 01:04:13;;;;;;;40.53;21.45;;;;;;;;;;5100201;28;20051;-66
2022/11/30 01:06:39;;;;;;;45.03;21.67;;;;;;;;;;5091644;28;20040;-66
2022/11/30 01:09:05;;;;;;;42.50;21.88;;;;;;;;;;5100958;28;20040;-66
2022/11/30 01:11:31;;;;;;;40.28;22.55;;;;;;;;;;5111929;28;20432;-66
2022/11/30 01:13:58;;;;;;;41.67;21.65;;;;;;;;;;5111929;28;20028;-66
2022/11/30 01:16:25;;;;;;;38.28;22.17;;;;;;;;;;5111173;28;20112;-66
2022/11/30 01:18:51;;;;;;;41.75;22.05;;;;;;;;;;5111899;28;20051;-66
2022/11/30 01:21:19;;;;;;;47.35;24.75;;;;;;;;;;5111781;28;20039;-66
2022/11/30 01:23:45;;;;;;;46.20;25.33;;;;;;;;;;5111496;28;20439;-66
2022/11/30 01:26:11;;;;;;;49.08;24.00;;;;;;;;;;5111786;28;20047;-66
2022/11/30 01:28:39;;;;;;;43.42;23.45;;;;;;;;;;5111985;28;20076;-66
2022/11/30 01:31:06;;;;;;;46.08;24.35;;;;;;;;;;5111375;28;20047;-66
2022/11/30 01:33:32;;;;;;;43.97;23.17;;;;;;;;;;5111668;28;20051;-66
2022/11/30 01:36:04;;;;;;;42.03;23.42;;;;;;;;;;5110502;28;20122;-66
2022/11/30 01:38:31;;;;;;;41.85;22.92;;;;;;;;;;5111517;28;20266;-66
2022/11/30 01:40:58;;;;;;;44.90;24.08;;;;;;;;;;5111745;28;20036;-66
2022/11/30 01:43:36;;;;;;;44.70;23.85;;;;;;;;;;5111542;28;20039;-66
2022/11/30 01:46:02;;;;;;;45.90;24.42;;;;;;;;;;5114392;28;20092;-66
2022/11/30 01:48:28;;;;;;;43.30;23.75;;;;;;;;;;5115800;28;20469;-66
2022/11/30 01:50:55;;;;;;;45.60;23.70;;;;;;;;;;5115429;28;20036;-66
2022/11/30 01:53:21;;;;;;;44.50;25.20;;;;;;;;;;5115078;28;20040;-66
2022/11/30 01:55:48;;;;;;;44.65;23.92;;;;;;;;;;5115726;28;20091;-66
2022/11/30 01:58:18;;;;;;;44.03;23.98;;;;;;;;;;5115449;28;20062;-66
2022/11/30 02:00:47;;;;;;;42.65;24.50;;;;;;;;;;5114976;28;20490;-66
2022/11/30 02:03:27;;;;;;;41.53;23.13;;;;;;;;;;5111774;28;20111;-66
2022/11/30 02:05:53;;;;;;;46.63;24.42;;;;;;;;;;5094859;28;20448;-66
2022/11/30 02:08:19;;;;;;;41.35;25.13;;;;;;;;;;5097853;28;20028;-66
2022/11/30 02:10:49;;;;;;;46.78;24.98;;;;;;;;;;5114827;28;20067;-66
2022/11/30 02:13:15;;;;;;;44.70;25.20;;;;;;;;;;5115391;28;20040;-66
2022/11/30 02:16:00;;;;;;;43.60;25.08;;;;;;;;;;5114934;28;20095;-66
2022/11/30 02:18:49;;;;;;;44.88;24.48;;;;;;;;;;5115134;28;20086;-66
2022/11/30 02:21:24;;;;;;;41.10;23.40;;;;;;;;;;5103670;28;20048;-66
2022/11/30 02:23:50;;;;;;;43.08;23.80;;;;;;;;;;5115171;28;20130;-66
2022/11/30 02:26:35;;;;;;;52.10;26.02;;;;;;;;;;5114836;28;20063;-66
2022/11/30 02:29:08;;;;;;;40.70;22.50;;;;;;;;;;5114613;28;20040;-66
2022/11/30 02:31:41;;;;;;;41.70;24.58;;;;;;;;;;5114614;28;20113;-66
2022/11/30 02:34:07;;;;;;;;;;;;;;;;;;5115208;28;20036;-66
2022/11/30 02:36:33;;;;;;;44.55;23.80;;;;;;;;;;5114420;28;19973;-66
2022/11/30 02:38:59;;;;;;;42.97;23.83;;;;;;;;;;5114704;28;20466;-66
2022/11/30 02:41:25;;;;;;;40.63;23.83;;;;;;;;;;5114472;28;20039;-66
2022/11/30 02:43:51;;;;;;;44.33;23.17;;;;;;;;;;5113926;28;20047;-66
2022/11/30 02:46:22;;;;;;;46.85;24.65;;;;;;;;;;5114478;28;20375;-66
2022/11/30 02:49:06;;;;;;;44.67;25.10;;;;;;;;;;5114686;28;20490;-66
2022/11/30 02:51:33;;;;;;;45.00;24.27;;;;;;;;;;5114134;28;20118;-66
2022/11/30 02:53:59;;;;;;;48.33;25.88;;;;;;;;;;5113034;28;20421;-66
2022/11/30 02:56:25;;;;;;;46.42;25.23;;;;;;;;;;5113816;28;20126;-66
2022/11/30 02:58:51;;;;;;;49.15;25.00;;;;;;;;;;5113959;28;20043;-66
2022/11/30 03:01:18;;;;;;;45.53;25.60;;;;;;;;;;5114139;28;20050;-66
2022/11/30 03:03:44;;;;;;;45.33;25.33;;;;;;;;;;5106638;28;20093;-66
2022/11/30 03:06:10;;;;;;;43.67;24.20;;;;;;;;;;5092917;28;20040;-66
2022/11/30 03:08:36;;;;;;;47.15;25.15;;;;;;;;;;5099367;28;20058;-66
2022/11/30 03:11:03;;;;;;;46.92;26.00;;;;;;;;;;5114096;28;20040;-66
2022/11/30 03:13:32;;;;;;;48.67;26.13;;;;;;;;;;5113747;28;20047;-66
2022/11/30 03:15:58;;;;;;;45.25;25.33;;;;;;;;;;5113617;28;20040;-66
2022/11/30 03:18:24;;;;;;;47.28;25.63;;;;;;;;;;5113923;28;20156;-66
2022/11/30 03:20:50;;;;;;;44.30;25.77;;;;;;;;;;5113511;28;20485;-66
2022/11/30 03:23:16;;;;;;;49.28;25.90;;;;;;;;;;5113464;28;20046;-66
2022/11/30 03:25:42;;;;;;;48.40;26.30;;;;;;;;;;5113764;28;20119;-66
2022/11/30 03:28:09;;;;;;;44.35;25.38;;;;;;;;;;5113444;28;20043;-66
2022/11/30 03:30:34;;;;;;;47.20;26.52;;;;;;;;;;5113577;28;20039;-66
2022/11/30 03:33:01;;;;;;;51.50;26.85;;;;;;;;;;5113832;28;20043;-66
2022/11/30 03:35:27;;;;;;;51.50;27.23;;;;;;;;;;5113216;28;20379;-66
2022/11/30 03:37:53;;;;;;;53.72;27.75;;;;;;;;;;5113620;28;20050;-66
2022/11/30 03:40:19;;;;;;;48.45;27.02;;;;;;;;;;5113478;28;20502;-66
2022/11/30 03:42:45;;;;;;;48.13;26.30;;;;;;;;;;5113030;28;20093;-66
2022/11/30 03:45:11;;;;;;;47.22;25.63;;;;;;;;;;5113430;28;20040;-66
2022/11/30 03:47:37;;;;;;;47.03;24.95;;;;;;;;;;5113241;28;20122;-66
2022/11/30 03:50:03;;;;;;;47.45;25.67;;;;;;;;;;5113204;28;20496;-66
2022/11/30 03:52:29;;;;;;;50.95;26.10;;;;;;;;;;5112845;28;20082;-66
2022/11/30 03:54:55;;;;;;;48.88;25.85;;;;;;;;;;5113336;28;20068;-66
2022/11/30 03:57:21;;;;;;;52.10;26.23;;;;;;;;;;5113199;28;20047;-66
2022/11/30 03:59:47;;;;;;;44.85;25.23;;;;;;;;;;5112782;28;20039;-66
2022/11/30 04:02:13;;;;;;;48.67;26.55;;;;;;;;;;5113005;28;20050;-66
2022/11/30 04:04:39;;;;;;;47.63;26.15;;;;;;;;;;5097598;28;20036;-66
2022/11/30 04:07:05;;;;;;;51.78;25.83;;;;;;;;;;5091403;28;20506;-66
2022/11/30 04:09:32;;;;;;;51.72;26.23;;;;;;;;;;5105971;28;20035;-66
2022/11/30 04:11:58;;;;;;;48.63;25.65;;;;;;;;;;5112895;28;20412;-66
2022/11/30 04:14:24;;;;;;;48.75;27.00;;;;;;;;;;5112325;28;20128;-66
2022/11/30 04:16:50;;;;;;;51.92;26.48;;;;;;;;;;5112629;28;20055;-66
2022/11/30 04:19:16;;;;;;;50.30;26.27;;;;;;;;;;5112543;28;20048;-66
2022/11/30 04:21:42;;;;;;;49.90;26.92;;;;;;;;;;5112199;28;20429;-66
2022/11/30 04:24:08;;;;;;;49.67;26.15;;;;;;;;;;5112753;28;20499;-66
2022/11/30 04:26:34;;;;;;;54.78;27.90;;;;;;;;;;5112468;28;20036;-66
2022/11/30 04:29:00;;;;;;;51.05;27.10;;;;;;;;;;5112196;28;20032;-66
2022/11/30 04:31:26;;;;;;;51.65;26.27;;;;;;;;;;5112596;28;20043;-66
2022/11/30 04:33:53;;;;;;;55.47;27.95;;;;;;;;;;5112503;28;20040;-66
2022/11/30 04:36:19;;;;;;;50.70;25.67;;;;;;;;;;5112185;28;20382;-66
2022/11/30 04:38:46;;;;;;;53.10;26.60;;;;;;;;;;5112093;28;20046;-66
2022/11/30 04:41:12;;;;;;;48.67;26.60;;;;;;;;;;5112300;28;20044;-66
2022/11/30 04:43:38;;;;;;;55.65;28.15;;;;;;;;;;5111928;28;20040;-66
2022/11/30 04:46:05;;;;;;;54.60;27.42;;;;;;;;;;5112305;28;20035;-66
2022/11/30 04:48:31;;;;;;;51.60;27.00;;;;;;;;;;5112448;28;20047;-66
2022/11/30 04:51:04;;;;;;;55.30;27.67;;;;;;;;;;5111762;28;20031;-66
2022/11/30 04:53:31;;;;;;;57.30;26.52;;;;;;;;;;5112158;28;20039;-66
2022/11/30 04:55:57;;;;;;;56.83;27.83;;;;;;;;;;5112362;28;20549;-66
2022/11/30 04:58:23;;;;;;;59.97;26.00;;;;;;;;;;5111821;28;20044;-66
2022/11/30 05:00:49;;;;;;;57.10;26.20;;;;;;;;;;5112222;28;20537;-66
2022/11/30 05:03:15;;;;;;;47.97;25.38;;;;;;;;;;5108419;28;20032;-66
2022/11/30 05:05:41;;;;;;;48.65;25.08;;;;;;;;;;5091586;28;20112;-66
2022/11/30 05:08:08;;;;;;;53.03;26.88;;;;;;;;;;5093241;28;20033;-66
2022/11/30 05:10:34;;;;;;;55.60;26.33;;;;;;;;;;5111760;28;20132;-66
2022/11/30 05:13:01;;;;;;;51.95;25.77;;;;;;;;;;5111635;28;20047;-66
2022/11/30 05:15:27;;;;;;;53.33;25.35;;;;;;;;;;5112091;28;20561;-66
2022/11/30 05:17:53;;;;;;;51.25;24.33;;;;;;;;;;5111539;28;20063;-66
2022/11/30 05:20:19;;;;;;;51.92;23.70;;;;;;;;;;5115641;28;20044;-66
2022/11/30 05:22:45;;;;;;;50.35;25.33;;;;;;;;;;5116168;28;20046;-66
2022/11/30 05:25:11;;;;;;;50.10;25.10;;;;;;;;;;5116165;28;20497;-66
2022/11/30 05:27:37;;;;;;;55.53;26.73;;;;;;;;;;5115547;28;20045;-66
2022/11/30 05:30:03;;;;;;;53.67;25.33;;;;;;;;;;5115723;28;20035;-66
2022/11/30 05:32:29;;;;;;;51.00;23.80;;;;;;;;;;5115918;28;20403;-66
2022/11/30 05:34:55;;;;;;;59.78;25.35;;;;;;;;;;5115425;28;20036;-66
2022/11/30 05:37:21;;;;;;;52.85;24.40;;;;;;;;;;5115680;28;20366;-66
2022/11/30 05:39:47;;;;;;;62.38;27.70;;;;;;;;;;5115777;28;20675;-66
2022/11/30 05:42:14;;;;;;;58.60;25.98;;;;;;;;;;5115172;28;20122;-66
2022/11/30 05:44:40;;;;;;;60.95;26.83;;;;;;;;;;5115819;28;20044;-66
2022/11/30 05:47:06;;;;;;;60.08;28.08;;;;;;;;;;5115730;28;20047;-66
2022/11/30 05:49:32;;;;;;;62.13;27.80;;;;;;;;;;5115375;28;20521;-66
2022/11/30 05:51:58;;;;;;;49.10;24.63;;;;;;;;;;5115693;28;20039;-66
2022/11/30 05:54:24;;;;;;;52.88;25.15;;;;;;;;;;5115414;28;20043;-66
2022/11/30 05:56:50;;;;;;;53.95;24.98;;;;;;;;;;5115030;28;20045;-66
2022/11/30 05:59:16;;;;;;;50.72;24.73;;;;;;;;;;5096858;28;20082;-66
2022/11/30 06:01:42;;;;;;;52.97;24.58;;;;;;;;;;5115183;28;20043;-66
2022/11/30 06:04:08;;;;;;;50.35;24.17;;;;;;;;;;5108913;28;20059;-67
2022/11/30 06:06:34;;;;;;;50.15;24.33;;;;;;;;;;5114886;28;20036;-67
2022/11/30 06:09:00;;;;;;;55.85;24.50;;;;;;;;;;5114741;28;20036;-67
2022/11/30 06:11:26;;;;;;;52.17;25.20;;;;;;;;;;5114284;28;20039;-67
2022/11/30 06:13:52;;;;;;;53.92;23.77;;;;;;;;;;5114584;28;20363;-67
2022/11/30 06:16:18;;;;;;;50.90;24.10;;;;;;;;;;5110631;28;20066;-67
2022/11/30 06:18:44;;;;;;;50.88;23.63;;;;;;;;;;5113164;28;20043;-67
2022/11/30 06:21:11;;;;;;;45.97;21.88;;;;;;;;;;5112721;28;20172;-67
2022/11/30 06:23:37;;;;;;;46.05;22.33;;;;;;;;;;5115081;28;20039;-67
2022/11/30 06:26:12;;;;;;;50.08;23.42;;;;;;;;;;5107926;28;20049;-66
2022/11/30 06:28:39;;;;;;;50.10;22.15;;;;;;;;;;5114282;28;20039;-67
2022/11/30 06:31:05;;;;;;;51.35;23.27;;;;;;;;;;5112606;28;20039;-67
2022/11/30 06:33:32;;;;;;;52.20;23.15;;;;;;;;;;5114139;28;20039;-67
2022/11/30 06:35:58;;;;;;;47.10;22.13;;;;;;;;;;5113769;28;20038;-67
2022/11/30 06:38:24;;;;;;;53.38;23.65;;;;;;;;;;5114256;28;20123;-68
2022/11/30 06:40:51;;;;;;;47.25;21.85;;;;;;;;;;5112071;28;20075;-67
2022/11/30 06:43:17;;;;;;;49.35;22.80;;;;;;;;;;5113961;28;20071;-66
2022/11/30 06:45:44;;;;;;;45.08;21.60;;;;;;;;;;5113144;28;20044;-67
2022/11/30 06:48:10;;;;;;;51.10;20.95;;;;;;;;;;5113759;28;20443;-67
2022/11/30 06:50:37;;;;;;;51.35;22.48;;;;;;;;;;5113659;28;20092;-67
2022/11/30 06:53:03;;;;;;;53.20;22.23;;;;;;;;;;5113503;27;20397;-67
2022/11/30 06:55:31;;;;;;;49.10;22.23;;;;;;;;;;5113540;28;20549;-67
2022/11/30 06:58:07;;;;;;;55.00;22.88;;;;;;;;;;5113463;28;20050;-66
2022/11/30 07:00:34;;;;;;;56.20;24.27;;;;;;;;;;5113810;28;20040;-66
2022/11/30 07:03:00;;;;;;;51.33;22.88;;;;;;;;;;5112864;28;20031;-67
2022/11/30 07:05:27;;;;;;;59.47;24.55;;;;;;;;;;5113508;28;20062;-67
2022/11/30 07:07:53;;;;;;;56.83;24.67;;;;;;;;;;5112779;28;20032;-67
2022/11/30 07:10:21;;;;;;;60.53;24.70;;;;;;;;;;5113207;28;20074;-66
2022/11/30 07:12:47;;;;;;;57.58;25.17;;;;;;;;;;5113040;28;20092;-66
2022/11/30 07:15:13;;;;;;;54.80;24.83;;;;;;;;;;5113470;28;20054;-66
2022/11/30 07:17:40;;;;;;;60.25;23.95;;;;;;;;;;5112348;28;20060;-67
2022/11/30 07:20:06;;;;;;;53.70;24.08;;;;;;;;;;5113030;28;20067;-66
2022/11/30 07:22:32;;;;;;;55.58;24.17;;;;;;;;;;5112027;28;20126;-67
2022/11/30 07:27:43;;;;;;;53.65;22.90;;;;;;;;;;5092610;28;20048;-67
2022/11/30 07:30:09;;;;;;;47.40;21.08;;;;;;;;;;5106077;28;20043;-67
2022/11/30 07:32:35;;;;;;;41.92;19.30;;;;;;;;;;5112320;28;20062;-67
2022/11/30 07:35:01;;;;;;;43.67;18.98;;;;;;;;;;5105172;28;20035;-66
2022/11/30 07:37:28;;;;;;;40.85;18.65;;;;;;;;;;5106514;28;20044;-66
2022/11/30 07:39:54;;;;;;;44.55;19.55;;;;;;;;;;5106169;28;20517;-66
2022/11/30 07:42:21;;;;;;;40.13;18.33;;;;;;;;;;5081149;28;20036;-67
2022/11/30 07:44:48;;;;;;;40.95;19.20;;;;;;;;;;5108384;28;20044;-67
2022/11/30 07:47:15;;;;;;;35.30;18.13;;;;;;;;;;5093655;28;20668;-66
2022/11/30 07:49:41;;;;;;;40.00;17.70;;;;;;;;;;5110182;28;20067;-67
2022/11/30 07:52:07;;;;;;;33.97;16.83;;;;;;;;;;5109642;28;20035;-67
2022/11/30 07:54:33;;;;;;;35.88;17.10;;;;;;;;;;5106962;28;20039;-69
2022/11/30 07:56:59;;;;;;;34.58;17.67;;;;;;;;;;5096475;28;20107;-68
2022/11/30 07:59:25;;;;;;;31.42;16.45;;;;;;;;;;5108093;28;20478;-69
2022/11/30 08:01:51;;;;;;;33.13;17.23;;;;;;;;;;5101024;28;20044;-68
2022/11/30 08:04:18;;;;;;;34.45;16.48;;;;;;;;;;5084261;28;20486;-68
2022/11/30 08:06:44;;;;;;;31.65;15.70;;;;;;;;;;5099955;28;20130;-68
2022/11/30 08:09:11;;;;;;;30.15;15.40;;;;;;;;;;5104113;28;20054;-68
2022/11/30 08:11:37;;;;;;;29.63;15.73;;;;;;;;;;5101155;28;20040;-68
2022/11/30 08:14:04;;;;;;;33.55;16.77;;;;;;;;;;5099461;28;20035;-68
2022/11/30 08:16:31;;;;;;;29.77;16.48;;;;;;;;;;5104903;28;20622;-68
2022/11/30 08:18:57;;;;;;;31.98;16.52;;;;;;;;;;5107222;28;20085;-68
2022/11/30 08:21:23;;;;;;;30.65;16.90;;;;;;;;;;5107697;28;20062;-68
2022/11/30 08:23:51;;;;;;;31.02;15.23;;;;;;;;;;5107013;28;20051;-68
2022/11/30 08:26:22;;;;;;;30.35;16.10;;;;;;;;;;5108033;28;20092;-68
2022/11/30 08:28:50;;;;;;;34.50;16.85;;;;;;;;;;5108271;28;20042;-68
2022/11/30 08:31:18;;;;;;;30.80;15.63;;;;;;;;;;5108874;28;20035;-68
2022/11/30 08:33:44;;;;;;;29.70;16.27;;;;;;;;;;5099854;28;20042;-68
2022/11/30 08:36:10;;;;;;;26.85;15.07;;;;;;;;;;5109043;28;20039;-68
2022/11/30 08:38:36;;;;;;;29.80;16.13;;;;;;;;;;5088107;28;20039;-68
2022/11/30 08:41:03;;;;;;;29.85;16.48;;;;;;;;;;5109766;28;20047;-69
2022/11/30 08:43:29;;;;;;;30.13;16.50;;;;;;;;;;5106449;28;20066;-68
2022/11/30 08:45:55;;;;;;;29.15;16.50;;;;;;;;;;5106553;28;20405;-68
2022/11/30 08:48:21;;;;;;;29.50;15.43;;;;;;;;;;5107518;28;20432;-68
2022/11/30 08:50:47;;;;;;;27.05;15.27;;;;;;;;;;5098235;28;20607;-68
2022/11/30 08:53:14;;;;;;;27.90;15.07;;;;;;;;;;5109263;28;20096;-67
2022/11/30 08:55:40;;;;;;;30.90;16.98;;;;;;;;;;5104837;28;20131;-68
2022/11/30 08:58:06;;;;;;;26.70;16.00;;;;;;;;;;5108298;28;20638;-68
2022/11/30 09:00:32;;;;;;;29.88;15.57;;;;;;;;;;5107811;28;20051;-68
2022/11/30 09:02:58;;;;;;;33.42;16.38;;;;;;;;;;5108518;28;20477;-68
2022/11/30 09:05:24;;;;;;;30.83;16.65;;;;;;;;;;5106877;28;20054;-68
2022/11/30 09:07:50;;;;;;;29.77;16.63;;;;;;;;;;5103568;28;20466;-68
2022/11/30 09:10:16;;;;;;;29.98;17.27;;;;;;;;;;5103726;28;20087;-68
2022/11/30 09:12:42;;;;;;;27.10;14.85;;;;;;;;;;5107787;28;20047;-68
2022/11/30 09:15:08;;;;;;;26.77;15.55;;;;;;;;;;5105722;28;20035;-68
2022/11/30 09:17:35;;;;;;;21.17;13.95;;;;;;;;;;5107575;28;20402;-68
2022/11/30 09:20:01;;;;;;;25.58;14.85;;;;;;;;;;5108019;28;20059;-68
2022/11/30 09:22:27;;;;;;;21.92;13.48;;;;;;;;;;5107292;28;20066;-68
2022/11/30 09:24:54;;;;;;;21.15;13.07;;;;;;;;;;5106907;28;20054;-68
2022/11/30 09:27:20;;;;;;;20.70;14.20;;;;;;;;;;5097572;28;20553;-68
2022/11/30 09:29:46;;;;;;;18.88;12.77;;;;;;;;;;5109497;28;20040;-68
2022/11/30 09:32:12;;;;;;;20.83;13.13;;;;;;;;;;5106765;28;20039;-68
2022/11/30 09:34:38;;;;;;;21.13;13.35;;;;;;;;;;5108051;28;20463;-68
2022/11/30 09:37:05;;;;;;;20.13;13.40;;;;;;;;;;5107942;28;20135;-68
2022/11/30 09:39:31;;;;;;;18.90;12.95;;;;;;;;;;5107938;28;20114;-68
2022/11/30 09:41:57;;;;;;;20.83;13.95;;;;;;;;;;5101349;28;20878;-68
2022/11/30 09:44:42;;;;;;;22.80;13.82;;;;;;;;;;5102700;28;20044;-68
2022/11/30 09:47:27;;;;;;;20.92;13.23;;;;;;;;;;5105257;28;20047;-68
2022/11/30 09:49:54;;;;;;;20.65;13.57;;;;;;;;;;5105966;28;20371;-69
2022/11/30 09:52:25;;;;;;;18.77;13.48;;;;;;;;;;5107623;28;20093;-69
2022/11/30 09:54:52;;;;;;;17.50;13.07;;;;;;;;;;5106652;28;20040;-68
2022/11/30 09:57:23;;;;;;;18.40;13.40;;;;;;;;;;5098999;28;20039;-68
2022/11/30 10:00:00;;;;;;;19.38;13.10;;;;;;;;;;5106255;28;20039;-68
2022/11/30 10:02:28;;;;;;;20.13;13.30;;;;;;;;;;5109114;28;20036;-68
2022/11/30 10:04:55;;;;;;;20.90;13.63;;;;;;;;;;5106713;28;20044;-69
2022/11/30 10:07:36;;;;;;;21.00;13.35;;;;;;;;;;5112378;28;20040;-68
2022/11/30 10:10:21;;;;;;;20.60;13.82;;;;;;;;;;5099233;28;20122;-68
2022/11/30 10:12:51;;;;;;;20.77;13.43;;;;;;;;;;5111907;28;20088;-68
2022/11/30 10:15:17;;;;;;;18.52;13.20;;;;;;;;;;5109767;28;20466;-69
2022/11/30 10:17:52;;;;;;;17.50;12.93;;;;;;;;;;5100613;28;20067;-68
2022/11/30 10:20:26;;;;;;;18.45;12.77;;;;;;;;;;5102957;28;20050;-67
2022/11/30 10:23:02;;;;;;;18.17;12.88;;;;;;;;;;5110133;28;20050;-67
2022/11/30 10:25:32;;;;;;;19.48;13.52;;;;;;;;;;5109510;28;20048;-67
2022/11/30 10:28:27;;;;;;;21.73;12.85;;;;;;;;;;5094305;28;20054;-68
2022/11/30 10:30:54;;;;;;;20.80;13.73;;;;;;;;;;5091307;28;20059;-66
2022/11/30 10:33:24;;;;;;;23.55;14.68;;;;;;;;;;5111189;28;20195;-66
2022/11/30 10:35:52;;;;;;;25.17;15.30;;;;;;;;;;5108339;28;20031;-66
2022/11/30 10:38:36;;;;;;;23.02;15.13;;;;;;;;;;5110979;28;20123;-66
2022/11/30 10:41:24;;;;;;;45.75;16.42;;;;;;;;;;5110062;28;20051;-66
2022/11/30 10:44:01;;;;;;;40.22;17.83;;;;;;;;;;5110803;28;20440;-67
2022/11/30 10:46:28;;;;;;;28.08;16.38;;;;;;;;;;5111236;28;20138;-67
2022/11/30 10:48:58;;;;;;;32.50;17.80;;;;;;;;;;5105030;28;20039;-66
2022/11/30 10:51:24;;;;;;;30.98;17.42;;;;;;;;;;5101530;28;20095;-66
2022/11/30 10:53:50;;;;;;;30.17;17.10;;;;;;;;;;5106704;28;20036;-66
2022/11/30 10:56:16;;;;;;;31.40;18.25;;;;;;;;;;5101222;28;20032;-67
2022/11/30 10:58:51;;;;;;;30.70;18.02;;;;;;;;;;5110790;28;20042;-67
2022/11/30 11:01:31;;;;;;;31.58;19.15;;;;;;;;;;5110508;28;20081;-67
2022/11/30 11:04:26;;;;;;;30.52;18.38;;;;;;;;;;5102462;28;20036;-67
2022/11/30 11:07:08;;;;;;;28.50;17.75;;;;;;;;;;5091213;27;20091;-67
2022/11/30 11:09:36;;;;;;;29.75;18.42;;;;;;;;;;5111156;28;20059;-67
2022/11/30 11:12:21;;;;;;;28.65;17.42;;;;;;;;;;5110457;28;20139;-67
2022/11/30 11:14:47;;;;;;;30.40;18.20;;;;;;;;;;5110701;28;20035;-67
2022/11/30 11:17:22;;;;;;;30.77;18.33;;;;;;;;;;5110082;28;20518;-67
2022/11/30 11:19:49;;;;;;;33.15;19.77;;;;;;;;;;5109255;28;20043;-67
2022/11/30 11:22:19;;;;;;;36.25;18.25;;;;;;;;;;5107914;28;20127;-67
2022/11/30 11:24:45;;;;;;;29.60;18.40;;;;;;;;;;5104467;28;20119;-67
2022/11/30 11:27:20;;;;;;;29.90;17.92;;;;;;;;;;5111291;28;20523;-66
2022/11/30 11:29:55;;;;;;;29.98;18.35;;;;;;;;;;5109303;28;20580;-67
2022/11/30 11:32:26;;;;;;;31.08;20.10;;;;;;;;;;5104617;28;20135;-67
2022/11/30 11:34:52;;;;;;;32.00;19.42;;;;;;;;;;5103975;28;20063;-66
2022/11/30 11:37:27;;;;;;;31.23;18.92;;;;;;;;;;5102304;28;20485;-66
2022/11/30 11:40:04;;;;;;;31.27;19.75;;;;;;;;;;5097770;28;20104;-67
2022/11/30 11:42:41;;;;;;;28.63;17.90;;;;;;;;;;5099282;28;20703;-66
2022/11/30 11:45:15;;;;;;;32.55;19.30;;;;;;;;;;5111119;28;20637;-66
2022/11/30 11:47:44;;;;;;;29.50;18.90;;;;;;;;;;5109938;28;20461;-66
2022/11/30 11:50:24;;;;;;;30.35;18.65;;;;;;;;;;5110850;28;20079;-67
2022/11/30 11:53:05;;;;;;;29.95;18.77;;;;;;;;;;5110709;28;20443;-66
2022/11/30 11:55:32;;;;;;;27.83;17.58;;;;;;;;;;5110448;28;20107;-67
2022/11/30 11:58:00;;;;;;;31.58;17.67;;;;;;;;;;5110974;28;20047;-66
2022/11/30 12:00:26;;;;;;;27.50;17.80;;;;;;;;;;5109347;28;20039;-66
2022/11/30 12:02:52;;;;;;;30.83;17.60;;;;;;;;;;5110973;28;20044;-66
2022/11/30 12:05:25;;;;;;;30.80;17.88;;;;;;;;;;5106416;28;20594;-66
2022/11/30 12:07:54;;;;;;;29.60;17.55;;;;;;;;;;5110121;28;20046;-66
2022/11/30 12:10:20;;;;;;;31.23;18.92;;;;;;;;;;5109477;28;20122;-66
2022/11/30 12:12:46;;;;;;;32.50;19.27;;;;;;;;;;5110844;28;20671;-67
2022/11/30 12:15:12;;;;;;;32.20;19.58;;;;;;;;;;5109052;28;20045;-67
2022/11/30 12:17:55;;;;;;;33.78;19.63;;;;;;;;;;5102342;28;20703;-67
2022/11/30 12:20:22;;;;;;;32.38;19.42;;;;;;;;;;5109045;28;20082;-66
2022/11/30 12:22:51;;;;;;;32.92;19.33;;;;;;;;;;5106413;28;20104;-66
2022/11/30 12:25:20;;;;;;;32.63;19.50;;;;;;;;;;5107502;28;20040;-66
2022/11/30 12:27:52;;;;;;;33.08;18.75;;;;;;;;;;5109007;28;20055;-66
2022/11/30 12:30:18;;;;;;;36.63;20.17;;;;;;;;;;5109585;28;20067;-66
2022/11/30 12:32:47;;;;;;;35.67;20.58;;;;;;;;;;5110412;28;20047;-66
2022/11/30 12:35:32;;;;;;;38.65;21.17;;;;;;;;;;5110943;28;20039;-66
2022/11/30 12:38:04;;;;;;;35.45;20.60;;;;;;;;;;5110099;28;20044;-66
2022/11/30 12:40:49;;;;;;;37.85;21.48;;;;;;;;;;5108155;28;20039;-67
2022/11/30 12:43:15;;;;;;;37.15;21.10;;;;;;;;;;5109093;28;20048;-67
2022/11/30 12:45:44;;;;;;;39.58;21.98;;;;;;;;;;5110183;28;20046;-66
2022/11/30 12:48:10;;;;;;;38.00;21.15;;;;;;;;;;5110955;28;20091;-66
2022/11/30 12:51:08;;;;;;;34.63;20.02;;;;;;;;;;5107896;28;20046;-65
2022/11/30 12:53:41;;;;;;;34.80;20.75;;;;;;;;;;5064776;28;20046;-65
2022/11/30 12:56:16;;;;;;;36.70;20.88;;;;;;;;;;5108273;28;20035;-66
2022/11/30 12:58:51;;;;;;;35.45;20.40;;;;;;;;;;5100317;28;20046;-66
2022/11/30 13:01:36;;;;;;;34.47;20.67;;;;;;;;;;5085868;28;20036;-66
2022/11/30 13:04:26;;;;;;;32.53;19.55;;;;;;;;;;5098546;28;20104;-66
2022/11/30 13:07:00;;;;;;;34.35;20.50;;;;;;;;;;5109566;28;20054;-66
2022/11/30 13:09:29;;;;;;;35.03;19.30;;;;;;;;;;5105224;28;20039;-66
2022/11/30 13:11:57;;;;;;;31.55;18.52;;;;;;;;;;5108864;28;20377;-65
2022/11/30 13:14:27;;;;;;;36.45;20.15;;;;;;;;;;5109836;28;20612;-65
2022/11/30 13:17:01;;;;;;;34.92;19.95;;;;;;;;;;5103206;28;20159;-67
2022/11/30 13:19:45;;;;;;;36.60;19.65;;;;;;;;;;5108069;28;20459;-67
2022/11/30 13:22:16;;;;;;;34.17;19.20;;;;;;;;;;5101942;28;20048;-66
2022/11/30 13:24:46;;;;;;;32.85;19.48;;;;;;;;;;5103961;28;20035;-67
2022/11/30 13:27:19;;;;;;;37.42;20.48;;;;;;;;;;5103378;28;20050;-68
2022/11/30 13:30:05;;;;;;;33.47;19.15;;;;;;;;;;5109476;28;20092;-67
2022/11/30 13:32:33;;;;;;;36.50;20.08;;;;;;;;;;5109460;28;20051;-68
2022/11/30 13:35:17;;;;;;;35.03;20.42;;;;;;;;;;5109697;28;20034;-67
2022/11/30 13:37:43;;;;;;;38.42;20.50;;;;;;;;;;5109567;28;20040;-66
2022/11/30 13:40:21;;;;;;;40.97;21.58;;;;;;;;;;5108677;28;20035;-67
2022/11/30 13:42:47;;;;;;;34.03;20.20;;;;;;;;;;5112230;28;20040;-67
2022/11/30 13:45:13;;;;;;;37.38;20.52;;;;;;;;;;5113691;28;20082;-66
2022/11/30 13:47:49;;;;;;;39.35;21.20;;;;;;;;;;5113336;28;20101;-66
2022/11/30 13:50:27;;;;;;;42.30;21.70;;;;;;;;;;5111902;28;20039;-67
2022/11/30 13:53:02;;;;;;;38.65;21.58;;;;;;;;;;5113923;28;20175;-67
2022/11/30 13:55:47;;;;;;;36.85;20.80;;;;;;;;;;5113123;28;20067;-67
2022/11/30 13:58:16;;;;;;;41.83;22.58;;;;;;;;;;5113941;28;20043;-67
2022/11/30 14:00:44;;;;;;;40.22;22.45;;;;;;;;;;5113238;28;20045;-67
2022/11/30 14:03:16;;;;;;;42.15;22.00;;;;;;;;;;5110139;28;20044;-67
2022/11/30 14:05:46;;;;;;;41.20;22.67;;;;;;;;;;5112777;28;20772;-67
2022/11/30 14:08:12;;;;;;;42.88;23.48;;;;;;;;;;5112622;28;20043;-67
2022/11/30 14:10:43;;;;;;;46.65;23.40;;;;;;;;;;5113004;28;20035;-67
2022/11/30 14:13:09;;;;;;;53.35;24.05;;;;;;;;;;5113481;28;20031;-66
2022/11/30 14:15:38;;;;;;;45.42;24.42;;;;;;;;;;5113183;28;20036;-66
2022/11/30 14:18:15;;;;;;;48.88;26.08;;;;;;;;;;5113042;28;20055;-66
2022/11/30 14:20:48;;;;;;;48.33;24.60;;;;;;;;;;5108590;28;20097;-67
2022/11/30 14:23:33;;;;;;;48.00;25.83;;;;;;;;;;5112490;28;20042;-68
2022/11/30 14:26:04;;;;;;;49.10;25.40;;;;;;;;;;5108089;28;20096;-67
2022/11/30 14:28:51;;;;;;;50.08;25.65;;;;;;;;;;5112429;28;20046;-68
2022/11/30 14:31:19;;;;;;;47.10;25.38;;;;;;;;;;5112067;28;20043;-67